Time;durP1;ratioP1;P1;durP2;ratioP2;P2;SDS_P1;SDS_P2;PMS_P1;PMS_P2;Temp;Humidity;BMP_temperature;BMP_pressure;BME280_temperature;BME280_humidity;BME280_pressure;Samples;Min_cycle;Max_cycle;Signal;HPM_P1;HPM_P2
2022/01/15 00:00:48;;;;;;;1.16;0.76;;;;;;;0.74;84.62;98156.97;456272;114;923147;-78
2022/01/15 00:01:52;;;;;;;0.66;0.49;;;;;;;0.74;84.50;98159.66;456253;114;922823;-77
2022/01/15 00:02:56;;;;;;;0.61;0.40;;;;;;;0.74;83.83;98156.97;455629;113;930353;-78
2022/01/15 00:03:59;;;;;;;2.34;0.67;;;;;;;0.75;83.10;98165.84;456278;114;930163;-78
2022/01/15 00:05:02;;;;;;;0.61;0.59;;;;;;;0.75;82.97;98169.36;455972;114;922955;-77
2022/01/15 00:06:05;;;;;;;0.86;0.59;;;;;;;0.77;83.27;98174.52;456776;113;922660;-78
2022/01/15 00:07:08;;;;;;;0.55;0.55;;;;;;;0.78;82.62;98170.77;456232;115;930375;-77
2022/01/15 00:08:11;;;;;;;1.32;0.50;;;;;;;0.78;82.88;98168.92;456287;113;923071;-78
2022/01/15 00:09:15;;;;;;;0.43;0.40;;;;;;;0.79;82.96;98175.94;456513;115;922685;-78
2022/01/15 00:10:25;;;;;;;1.08;0.44;;;;;;;0.80;82.99;98171.40;456651;114;922667;-78
2022/01/15 00:11:26;;;;;;;0.38;0.30;;;;;;;0.80;82.20;98182.95;455951;115;922540;-79
2022/01/15 00:12:37;;;;;;;1.04;0.34;;;;;;;0.82;82.65;98188.12;455652;114;923886;-79
2022/01/15 00:13:35;;;;;;;0.51;0.48;;;;;;;0.82;82.61;98180.07;455571;113;922654;-79
2022/01/15 00:14:41;;;;;;;0.48;0.48;;;;;;;0.81;82.10;98179.24;456688;113;922855;-77
2022/01/15 00:15:50;;;;;;;0.71;0.39;;;;;;;0.82;82.06;98185.44;456036;114;930334;-78
2022/01/15 00:16:55;;;;;;;0.44;0.44;;;;;;;0.83;82.54;98187.05;455590;115;923269;-78
2022/01/15 00:18:00;;;;;;;0.78;0.53;;;;;;;0.81;81.32;98189.14;455398;114;922611;-77
2022/01/15 00:19:09;;;;;;;3.47;0.65;;;;;;;0.82;81.78;98194.30;438288;119;922629;-78
2022/01/15 00:20:16;;;;;;;0.59;0.49;;;;;;;0.82;81.75;98188.95;437371;119;922668;-78
2022/01/15 00:21:19;;;;;;;1.02;0.66;;;;;;;0.82;81.95;98196.16;456330;114;922875;-77
2022/01/15 00:22:21;;;;;;;0.86;0.64;;;;;;;0.82;82.00;98198.84;456973;115;922469;-77
2022/01/15 00:23:24;;;;;;;1.27;0.94;;;;;;;0.81;81.77;98195.34;456688;113;922686;-77
2022/01/15 00:24:27;;;;;;;0.82;0.76;;;;;;;0.80;81.73;98196.37;456970;113;922491;-77
2022/01/15 00:25:32;;;;;;;1.61;1.27;;;;;;;0.80;81.67;98196.37;457197;115;922609;-77
2022/01/15 00:26:35;;;;;;;1.96;0.96;;;;;;;0.79;80.84;98205.44;455986;113;922577;-77
2022/01/15 00:27:39;;;;;;;1.44;0.64;;;;;;;0.80;80.45;98200.91;456061;115;930314;-78
2022/01/15 00:28:43;;;;;;;2.14;0.70;;;;;;;0.80;80.82;98190.17;456600;115;923009;-79
2022/01/15 00:29:46;;;;;;;1.64;0.80;;;;;;;0.80;80.33;98199.05;455973;114;922784;-78
2022/01/15 00:30:49;;;;;;;0.88;0.80;;;;;;;0.81;80.47;98213.28;456753;113;923003;-78
2022/01/15 00:31:52;;;;;;;0.99;0.91;;;;;;;0.81;80.42;98211.43;456459;115;923300;-78
2022/01/15 00:32:55;;;;;;;0.87;0.69;;;;;;;0.82;80.73;98212.25;456016;114;922681;-78
2022/01/15 00:33:59;;;;;;;1.05;0.68;;;;;;;0.82;80.80;98209.58;456292;115;922635;-77
2022/01/15 00:35:03;;;;;;;0.71;0.48;;;;;;;0.82;80.67;98220.30;456559;116;922595;-78
2022/01/15 00:36:06;;;;;;;1.42;0.54;;;;;;;0.84;80.24;98223.58;446501;116;922448;-78
2022/01/15 00:37:09;;;;;;;0.71;0.49;;;;;;;0.84;80.33;98220.90;456543;115;930114;-78
2022/01/15 00:38:13;;;;;;;0.64;0.49;;;;;;;0.86;80.49;98223.38;456877;115;923383;-78
2022/01/15 00:39:16;;;;;;;1.14;0.40;;;;;;;0.85;80.33;98222.55;456971;113;922688;-78
2022/01/15 00:40:21;;;;;;;0.84;0.43;;;;;;;0.85;79.94;98209.14;455924;114;922991;-78
2022/01/15 00:41:25;;;;;;;1.04;0.61;;;;;;;0.87;80.03;98225.03;456254;113;930125;-77
2022/01/15 00:42:30;;;;;;;0.54;0.48;;;;;;;0.86;79.29;98226.06;455990;116;922872;-78
2022/01/15 00:43:33;;;;;;;1.26;0.74;;;;;;;0.87;79.25;98220.50;456193;113;930893;-78
2022/01/15 00:44:39;;;;;;;0.57;0.54;;;;;;;0.87;78.75;98238.45;456454;114;922595;-77
2022/01/15 00:45:42;;;;;;;1.76;0.63;;;;;;;0.89;79.12;98228.31;455970;114;922639;-78
2022/01/15 00:46:46;;;;;;;0.59;0.50;;;;;;;0.88;78.69;98224.83;455256;114;922547;-78
2022/01/15 00:47:51;;;;;;;0.66;0.60;;;;;;;0.90;78.91;98228.11;456394;115;930234;-78
2022/01/15 00:48:54;;;;;;;0.79;0.60;;;;;;;0.91;78.39;98231.61;455758;113;922835;-78
2022/01/15 00:49:59;;;;;;;0.89;0.40;;;;;;;0.92;78.49;98244.83;456397;113;922902;-79
2022/01/15 00:51:02;;;;;;;0.57;0.53;;;;;;;0.92;78.05;98249.37;455669;113;922696;-80
2022/01/15 00:52:06;;;;;;;1.97;0.73;;;;;;;0.92;77.75;98247.52;456114;113;923025;-78
2022/01/15 00:53:09;;;;;;;1.79;0.54;;;;;;;0.92;78.08;98242.14;456123;113;922740;-77
2022/01/15 00:54:12;;;;;;;0.54;0.41;;;;;;;0.94;78.11;98244.62;456286;115;922677;-79
2022/01/15 00:55:17;;;;;;;1.39;0.49;;;;;;;0.93;77.61;98241.12;456847;114;922957;-79
2022/01/15 00:56:21;;;;;;;0.73;0.42;;;;;;;0.93;77.63;98246.48;456174;114;922623;-77
2022/01/15 00:57:24;;;;;;;1.30;0.42;;;;;;;0.94;77.57;98244.62;456346;115;922983;-78
2022/01/15 00:58:27;;;;;;;0.55;0.38;;;;;;;0.93;77.80;98241.12;456045;114;930379;-77
2022/01/15 00:59:30;;;;;;;1.07;0.50;;;;;;;0.93;77.86;98243.80;456796;113;923308;-77
2022/01/15 01:00:34;;;;;;;1.38;0.59;;;;;;;0.93;77.67;98257.21;456197;113;923453;-77
2022/01/15 01:01:37;;;;;;;0.74;0.48;;;;;;;0.91;77.60;98245.86;455553;113;922624;-76
2022/01/15 01:02:41;;;;;;;0.62;0.60;;;;;;;0.92;77.40;98254.73;456687;114;922567;-77
2022/01/15 01:03:45;;;;;;;0.85;0.65;;;;;;;0.91;77.38;98259.27;456827;115;923411;-79
2022/01/15 01:04:48;;;;;;;2.51;0.93;;;;;;;0.92;77.26;98273.52;456083;113;922716;-79
2022/01/15 01:05:52;;;;;;;1.26;0.75;;;;;;;0.91;77.26;98258.44;456335;116;922538;-79
2022/01/15 01:06:55;;;;;;;0.81;0.62;;;;;;;0.91;77.11;98256.59;439939;118;923032;-79
2022/01/15 01:07:59;;;;;;;0.96;0.60;;;;;;;0.91;76.59;98264.63;456188;113;922609;-78
2022/01/15 01:09:03;;;;;;;0.71;0.50;;;;;;;0.92;76.79;98266.29;456874;114;922689;-78
2022/01/15 01:11:17;;;;;;;0.61;0.58;;;;;;;0.91;76.73;98264.63;456638;115;922553;-77
2022/01/15 01:12:34;;;;;;;0.86;0.57;;;;;;;0.90;76.70;98276.39;456687;113;922643;-78
2022/01/15 01:20:28;;;;;;;0.66;0.52;;;;;;;0.72;81.50;98294.98;456804;115;922629;-76
2022/01/15 01:22:12;;;;;;;0.44;0.35;;;;;;;0.69;82.13;98296.23;455296;115;922916;-77
2022/01/15 01:23:54;;;;;;;0.97;0.91;;;;;;;0.65;82.30;98302.23;457247;116;922552;-77
2022/01/15 01:24:57;;;;;;;1.27;0.85;;;;;;;0.64;82.30;98305.94;456427;115;922581;-76
2022/01/15 01:26:23;;;;;;;1.72;0.78;;;;;;;0.64;81.90;98306.77;456964;114;922639;-76
2022/01/15 01:27:26;;;;;;;1.08;0.44;;;;;;;0.65;81.64;98311.10;455870;115;922883;-75
2022/01/15 01:28:37;;;;;;;0.58;0.43;;;;;;;0.67;82.21;98310.88;445934;116;922754;-76
2022/01/15 01:31:15;;;;;;;1.16;0.73;;;;;;;0.67;82.26;98333.16;447261;116;922459;-76
2022/01/15 01:32:25;;;;;;;0.76;0.59;;;;;;;0.69;82.16;98325.73;452322;115;922907;-77
2022/01/15 01:33:29;;;;;;;0.68;0.47;;;;;;;0.70;82.06;98340.80;453527;115;922660;-77
2022/01/15 01:34:20;;;;;;;0.35;0.35;;;;;;;0.70;81.51;98329.25;437943;119;923019;-75
2022/01/15 01:36:58;;;;;;;0.80;0.50;;;;;;;0.81;80.55;98345.55;473197;110;946887;-76
2022/01/15 01:37:52;;;;;;;5.71;0.40;;;;;;;0.71;79.43;98347.00;464814;113;922561;-78
2022/01/15 01:38:59;;;;;;;0.50;0.34;;;;;;;0.72;80.26;98351.30;457325;113;922582;-78
2022/01/15 01:40:39;;;;;;;0.75;0.37;;;;;;;0.71;79.60;98350.50;456999;115;922655;-76
2022/01/15 01:41:16;;;;;;;0.83;0.39;;;;;;;0.71;79.52;98357.72;445320;114;922748;-76
2022/01/15 01:44:29;;;;;;;3.77;0.71;;;;;;;0.69;79.86;98354.41;456903;114;922894;-77
2022/01/15 01:45:33;;;;;;;0.47;0.40;;;;;;;0.68;79.63;98358.95;455160;114;922526;-76
2022/01/15 01:46:44;;;;;;;2.90;0.57;;;;;;;0.67;79.23;98368.02;456973;114;922724;-76
2022/01/15 01:47:43;;;;;;;1.11;0.58;;;;;;;0.65;79.38;98354.01;456350;115;930214;-77
2022/01/15 01:48:46;;;;;;;1.58;0.56;;;;;;;0.64;79.30;98359.56;457099;114;922691;-77
2022/01/15 01:49:49;;;;;;;1.16;0.53;;;;;;;0.63;79.09;98357.91;456704;114;930158;-76
2022/01/15 01:50:53;;;;;;;1.06;0.56;;;;;;;0.61;79.43;98368.84;456893;115;930344;-76
2022/01/15 01:51:56;;;;;;;0.44;0.41;;;;;;;0.59;79.20;98368.23;456618;114;922435;-76
2022/01/15 01:52:59;;;;;;;1.26;0.64;;;;;;;0.56;78.39;98368.63;456691;113;922624;-77
2022/01/15 01:54:11;;;;;;;1.34;0.51;;;;;;;0.54;78.58;98383.28;455669;114;922908;-76
2022/01/15 01:55:15;;;;;;;0.78;0.63;;;;;;;0.51;78.72;98379.14;456641;115;922624;-76
2022/01/15 01:56:19;;;;;;;0.98;0.47;;;;;;;0.50;78.11;98385.53;456562;114;923096;-75
2022/01/15 01:57:23;;;;;;;2.19;0.51;;;;;;;0.49;78.44;98386.58;457025;114;930330;-77
2022/01/15 01:58:26;;;;;;;0.42;0.40;;;;;;;0.48;77.95;98381.42;456119;114;923902;-77
2022/01/15 01:59:30;;;;;;;0.52;0.27;;;;;;;0.49;78.27;98383.91;447838;118;922600;-76
2022/01/15 02:00:34;;;;;;;0.96;0.41;;;;;;;0.48;78.99;98392.97;456085;116;922544;-76
2022/01/15 02:01:38;;;;;;;0.39;0.31;;;;;;;0.46;79.10;98400.37;456435;114;922643;-76
2022/01/15 02:02:42;;;;;;;0.69;0.40;;;;;;;0.47;78.96;98401.20;456649;115;922501;-76
2022/01/15 02:03:45;;;;;;;0.90;0.51;;;;;;;0.47;78.83;98396.67;456300;114;922688;-74
2022/01/15 02:04:49;;;;;;;0.47;0.42;;;;;;;0.47;78.98;98396.67;456132;114;922886;-74
2022/01/15 02:05:54;;;;;;;0.96;0.57;;;;;;;0.48;79.19;98401.02;456490;114;922621;-74
2022/01/15 02:06:57;;;;;;;1.18;0.65;;;;;;;0.49;78.71;98399.98;455798;114;922539;-76
2022/01/15 02:08:00;;;;;;;0.97;0.45;;;;;;;0.51;78.12;98399.77;456861;114;930754;-75
2022/01/15 02:09:07;;;;;;;0.89;0.60;;;;;;;0.50;76.72;98412.34;456770;113;922548;-75
2022/01/15 02:10:16;;;;;;;1.18;0.94;;;;;;;0.51;76.72;98387.19;456503;114;922665;-76
2022/01/15 02:11:19;;;;;;;0.72;0.52;;;;;;;0.53;76.85;98398.55;456324;114;922526;-75
2022/01/15 02:12:22;;;;;;;1.34;0.57;;;;;;;0.54;76.65;98402.88;456898;114;922536;-75
2022/01/15 02:13:26;;;;;;;0.76;0.51;;;;;;;0.56;76.83;98402.66;456140;113;922957;-76
2022/01/15 02:14:30;;;;;;;0.51;0.36;;;;;;;0.56;77.01;98395.44;456890;114;922836;-76
2022/01/15 02:15:36;;;;;;;1.10;0.45;;;;;;;0.57;76.50;98398.95;456254;114;930358;-75
2022/01/15 02:16:38;;;;;;;0.95;0.44;;;;;;;0.57;75.66;98413.19;456427;114;923003;-75
2022/01/15 02:17:43;;;;;;;0.54;0.31;;;;;;;0.57;76.18;98407.82;455920;114;925408;-74
2022/01/15 02:18:48;;;;;;;1.52;0.84;;;;;;;0.59;75.70;98410.31;455699;114;922598;-74
2022/01/15 02:23:49;;;;;;;0.59;0.47;;;;;;;0.62;74.22;98409.88;456238;114;923095;-75
2022/01/15 02:24:48;;;;;;;1.88;0.62;;;;;;;0.63;73.75;98422.27;455248;114;923039;-75
2022/01/15 02:25:55;;;;;;;0.99;0.54;;;;;;;0.61;72.87;98419.78;456784;115;922574;-73
2022/01/15 02:26:58;;;;;;;0.74;0.50;;;;;;;0.62;73.23;98431.34;454924;114;922691;-75
2022/01/15 02:28:01;;;;;;;0.46;0.40;;;;;;;0.62;73.25;98436.70;457025;115;922916;-75
2022/01/15 02:29:07;;;;;;;0.73;0.46;;;;;;;0.62;73.28;98442.06;457004;115;922512;-74
2022/01/15 02:30:12;;;;;;;1.99;0.68;;;;;;;0.61;72.83;98440.41;456155;114;922648;-75
2022/01/15 02:31:17;;;;;;;0.88;0.48;;;;;;;0.60;72.31;98436.92;437599;118;922721;-76
2022/01/15 02:32:20;;;;;;;0.99;0.64;;;;;;;0.61;72.52;98443.09;456522;114;922678;-74
2022/01/15 02:33:24;;;;;;;1.09;0.54;;;;;;;0.62;72.44;98444.75;456531;113;922850;-74
2022/01/15 02:34:27;;;;;;;1.41;0.51;;;;;;;0.61;71.95;98449.28;455775;114;922710;-77
2022/01/15 02:35:30;;;;;;;2.85;0.67;;;;;;;0.63;72.09;98451.77;456010;114;922813;-73
2022/01/15 02:36:36;;;;;;;0.55;0.28;;;;;;;0.62;71.93;98450.94;455941;114;922784;-75
2022/01/15 02:37:39;;;;;;;0.46;0.41;;;;;;;0.62;71.07;98442.89;456784;114;922582;-76
2022/01/15 02:38:43;;;;;;;0.75;0.41;;;;;;;0.63;71.31;98459.81;448323;116;923093;-75
2022/01/15 02:39:46;;;;;;;0.42;0.31;;;;;;;0.64;71.36;98453.42;449180;116;922682;-75
2022/01/15 02:40:51;;;;;;;1.09;0.66;;;;;;;0.65;71.19;98460.45;457188;114;922894;-74
2022/01/15 02:41:54;;;;;;;1.24;0.46;;;;;;;0.66;71.45;98462.10;456010;114;922727;-74
2022/01/15 02:42:59;;;;;;;0.99;0.42;;;;;;;0.66;71.12;98462.90;456351;114;922637;-75
2022/01/15 02:44:05;;;;;;;1.41;0.79;;;;;;;0.66;71.17;98465.58;456130;114;922649;-74
2022/01/15 02:45:11;;;;;;;0.79;0.47;;;;;;;0.64;71.01;98456.94;456044;114;922709;-74
2022/01/15 02:46:46;;;;;;;1.32;0.54;;;;;;;0.64;70.64;98466.83;456062;115;922595;-75
2022/01/15 02:48:52;;;;;;;1.11;0.62;;;;;;;0.63;70.44;98465.17;456397;114;922525;-75
2022/01/15 02:49:56;;;;;;;0.88;0.50;;;;;;;0.63;70.28;98468.69;455633;115;922918;-76
2022/01/15 02:50:59;;;;;;;0.66;0.43;;;;;;;0.62;70.45;98472.39;455208;114;922520;-75
2022/01/15 02:52:03;;;;;;;2.26;0.83;;;;;;;0.64;70.45;98477.56;456196;114;922932;-78
2022/01/15 02:53:08;;;;;;;1.51;0.66;;;;;;;0.64;70.37;98483.75;455712;114;923061;-75
2022/01/15 02:54:11;;;;;;;0.81;0.76;;;;;;;0.64;70.46;98483.75;455499;113;922776;-74
2022/01/15 02:55:14;;;;;;;1.08;0.89;;;;;;;0.64;70.55;98473.02;455956;115;930273;-74
2022/01/15 02:56:19;;;;;;;1.73;1.02;;;;;;;0.65;69.91;98481.90;456184;116;923247;-75
2022/01/15 02:57:22;;;;;;;1.99;0.89;;;;;;;0.66;70.08;98483.56;456132;114;922944;-74
2022/01/15 02:58:26;;;;;;;1.24;0.85;;;;;;;0.67;70.15;98487.87;455734;113;922639;-76
2022/01/15 02:59:29;;;;;;;1.04;0.90;;;;;;;0.67;70.08;98487.87;456373;114;922612;-75
2022/01/15 03:00:32;;;;;;;1.23;1.15;;;;;;;0.68;69.95;98484.16;455844;114;923009;-75
2022/01/15 03:01:36;;;;;;;1.37;0.99;;;;;;;0.70;69.65;98487.48;447725;117;930205;-75
2022/01/15 03:02:39;;;;;;;2.08;0.62;;;;;;;0.69;69.46;98504.59;456826;114;930202;-75
2022/01/15 03:03:43;;;;;;;1.16;0.70;;;;;;;0.70;69.54;98490.16;456224;114;930524;-75
2022/01/15 03:04:46;;;;;;;1.11;0.93;;;;;;;0.70;69.56;98498.20;456955;116;922973;-76
2022/01/15 03:05:49;;;;;;;0.88;0.81;;;;;;;0.70;69.72;98500.89;456417;115;922567;-76
2022/01/15 03:06:53;;;;;;;0.56;0.52;;;;;;;0.69;69.52;98502.73;455792;115;930392;-74
2022/01/15 03:07:56;;;;;;;1.40;0.59;;;;;;;0.69;69.20;98504.59;456691;114;922700;-75
2022/01/15 03:08:59;;;;;;;1.33;0.51;;;;;;;0.67;69.34;98503.95;456615;114;922573;-74
2022/01/15 03:10:04;;;;;;;1.23;0.60;;;;;;;0.66;69.40;98492.40;456261;113;923096;-75
2022/01/15 03:11:08;;;;;;;3.77;0.58;;;;;;;0.65;69.59;98506.03;456323;114;922689;-75
2022/01/15 03:12:11;;;;;;;1.05;0.69;;;;;;;0.64;69.47;98507.06;456276;114;922964;-74
2022/01/15 03:13:15;;;;;;;1.03;0.58;;;;;;;0.63;69.48;98510.77;456596;116;930192;-76
2022/01/15 03:14:19;;;;;;;1.04;0.76;;;;;;;0.64;69.44;98520.47;456180;113;922909;-75
2022/01/15 03:15:23;;;;;;;1.16;0.50;;;;;;;0.62;68.86;98517.98;456142;115;922708;-76
2022/01/15 03:16:26;;;;;;;1.12;0.62;;;;;;;0.64;68.99;98520.47;456099;115;922569;-72
2022/01/15 03:17:29;;;;;;;0.76;0.46;;;;;;;0.64;69.28;98520.47;456209;114;930275;-74
2022/01/15 03:18:33;;;;;;;0.62;0.36;;;;;;;0.63;68.94;98525.00;456695;114;922589;-76
2022/01/15 03:19:36;;;;;;;0.62;0.58;;;;;;;0.64;69.21;98520.47;454919;115;922827;-76
2022/01/15 03:20:39;;;;;;;0.44;0.37;;;;;;;0.64;68.97;98541.92;454554;115;923085;-74
2022/01/15 03:21:43;;;;;;;0.50;0.50;;;;;;;0.63;68.80;98524.17;456393;114;930151;-75
2022/01/15 03:22:47;;;;;;;0.72;0.53;;;;;;;0.63;68.95;98532.22;456319;113;922756;-74
2022/01/15 03:23:50;;;;;;;0.68;0.54;;;;;;;0.62;69.08;98535.92;455783;113;922625;-75
2022/01/15 03:24:53;;;;;;;0.76;0.61;;;;;;;0.60;69.15;98532.63;456449;114;922486;-77
2022/01/15 03:25:56;;;;;;;0.92;0.84;;;;;;;0.57;69.20;98536.52;456520;114;922616;-75
2022/01/15 03:27:00;;;;;;;0.71;0.41;;;;;;;0.56;69.01;98539.40;456146;115;922741;-75
2022/01/15 03:28:03;;;;;;;0.86;0.32;;;;;;;0.54;69.24;98536.94;455643;114;922561;-76
2022/01/15 03:29:06;;;;;;;0.65;0.46;;;;;;;0.52;69.18;98528.27;447224;117;922745;-75
2022/01/15 03:30:12;;;;;;;0.88;0.50;;;;;;;0.53;69.31;98542.50;456568;114;930372;-75
2022/01/15 03:31:16;;;;;;;1.59;0.82;;;;;;;0.52;69.48;98524.75;455978;115;923142;-75
2022/01/15 03:32:20;;;;;;;1.02;0.39;;;;;;;0.51;69.40;98539.17;456043;114;930307;-75
2022/01/15 03:33:23;;;;;;;0.53;0.50;;;;;;;0.50;69.33;98534.87;456851;116;922327;-77
2022/01/15 03:34:27;;;;;;;0.72;0.68;;;;;;;0.49;69.65;98530.53;439422;119;930158;-76
2022/01/15 03:35:30;;;;;;;0.94;0.62;;;;;;;0.48;69.78;98534.23;456933;114;922463;-76
2022/01/15 03:36:33;;;;;;;0.76;0.68;;;;;;;0.46;69.84;98557.72;456410;114;922625;-75
2022/01/15 03:37:37;;;;;;;2.39;0.48;;;;;;;0.45;70.01;98545.34;456886;114;930800;-75
2022/01/15 03:38:40;;;;;;;0.78;0.61;;;;;;;0.43;70.20;98553.60;455404;114;922538;-74
2022/01/15 03:39:44;;;;;;;0.66;0.51;;;;;;;0.45;70.33;98554.20;456147;114;922551;-76
2022/01/15 03:40:48;;;;;;;0.92;0.50;;;;;;;0.44;70.46;98557.11;456205;114;930196;-75
2022/01/15 03:41:51;;;;;;;1.16;0.54;;;;;;;0.42;70.60;98562.66;456674;115;922598;-76
2022/01/15 03:42:54;;;;;;;1.16;0.75;;;;;;;0.40;70.77;98553.98;456151;114;922422;-76
2022/01/15 03:43:58;;;;;;;0.83;0.48;;;;;;;0.40;70.66;98567.39;455901;115;922873;-75
2022/01/15 03:45:01;;;;;;;1.01;0.40;;;;;;;0.39;70.78;98563.88;456629;114;930239;-75
2022/01/15 03:46:04;;;;;;;1.03;0.67;;;;;;;0.38;70.80;98569.45;456216;114;922599;-75
2022/01/15 03:47:09;;;;;;;0.51;0.43;;;;;;;0.39;70.80;98568.41;456102;114;930300;-73
2022/01/15 03:48:12;;;;;;;1.62;0.69;;;;;;;0.37;70.75;98573.99;456404;114;922571;-73
2022/01/15 03:49:15;;;;;;;1.05;0.94;;;;;;;0.38;70.97;98589.05;455667;114;922728;-75
2022/01/15 03:50:19;;;;;;;0.90;0.62;;;;;;;0.39;71.09;98579.12;456668;114;922586;-76
2022/01/15 03:51:23;;;;;;;0.65;0.48;;;;;;;0.39;71.11;98584.49;456810;116;930231;-75
2022/01/15 03:52:26;;;;;;;0.56;0.36;;;;;;;0.40;71.16;98583.47;456560;114;922575;-75
2022/01/15 03:53:29;;;;;;;0.80;0.80;;;;;;;0.40;71.21;98578.94;456846;114;923149;-74
2022/01/15 03:54:33;;;;;;;1.46;1.33;;;;;;;0.40;71.45;98578.11;457083;115;922631;-75
2022/01/15 03:55:37;;;;;;;0.97;0.94;;;;;;;0.43;71.50;98584.94;455943;114;922877;-75
2022/01/15 03:56:40;;;;;;;1.32;1.09;;;;;;;0.43;71.50;98584.94;455542;114;930231;-74
2022/01/15 03:57:44;;;;;;;1.02;0.69;;;;;;;0.41;71.51;98582.45;456756;114;923419;-73
2022/01/15 03:58:47;;;;;;;0.80;0.51;;;;;;;0.41;71.51;98579.77;456372;114;922731;-73
2022/01/15 03:59:50;;;;;;;1.01;0.49;;;;;;;0.41;71.49;98585.96;456469;115;923151;-76
2022/01/15 04:00:54;;;;;;;0.76;0.47;;;;;;;0.41;71.43;98588.64;455947;114;923104;-73
2022/01/15 04:01:57;;;;;;;1.06;0.72;;;;;;;0.41;71.46;98583.28;455531;114;922596;-73
2022/01/15 04:03:03;;;;;;;1.98;0.59;;;;;;;0.41;71.55;98593.17;456070;115;922569;-75
2022/01/15 04:04:07;;;;;;;1.60;0.71;;;;;;;0.41;71.48;98594.00;454891;113;922663;-74
2022/01/15 04:05:11;;;;;;;0.51;0.51;;;;;;;0.42;71.35;98592.16;456214;114;923015;-74
2022/01/15 04:06:15;;;;;;;0.54;0.50;;;;;;;0.44;71.44;98594.64;456081;114;923036;-74
2022/01/15 04:07:18;;;;;;;0.72;0.59;;;;;;;0.45;71.51;98596.27;456727;115;922871;-76
2022/01/15 04:08:21;;;;;;;0.54;0.41;;;;;;;0.45;71.82;98594.42;455875;113;922626;-76
2022/01/15 04:09:24;;;;;;;1.37;0.34;;;;;;;0.45;72.65;98602.47;455404;114;922450;-75
2022/01/15 04:10:28;;;;;;;0.47;0.43;;;;;;;0.43;72.97;98596.50;456147;114;922790;-76
2022/01/15 04:11:31;;;;;;;1.32;0.82;;;;;;;0.43;73.40;98607.22;456409;114;923416;-76
2022/01/15 04:12:34;;;;;;;0.83;0.52;;;;;;;0.40;73.70;98605.75;456154;114;922966;-76
2022/01/15 04:13:38;;;;;;;0.64;0.27;;;;;;;0.39;74.17;98614.81;441251;118;922560;-76
2022/01/15 04:14:41;;;;;;;0.74;0.40;;;;;;;0.36;74.85;98617.90;456113;114;922673;-73
2022/01/15 04:15:51;;;;;;;1.04;0.60;;;;;;;0.34;75.13;98617.26;456087;114;923082;-75
2022/01/15 04:16:50;;;;;;;0.52;0.39;;;;;;;0.32;75.40;98613.97;455605;113;922593;-75
2022/01/15 04:17:53;;;;;;;0.56;0.44;;;;;;;0.31;75.31;98623.03;456209;114;922686;-74
2022/01/15 04:18:59;;;;;;;0.68;0.40;;;;;;;0.30;75.37;98623.22;456125;114;930274;-75
2022/01/15 04:20:03;;;;;;;0.53;0.40;;;;;;;0.29;75.41;98624.23;456277;115;922672;-76
2022/01/15 04:21:09;;;;;;;0.30;0.24;;;;;;;0.26;75.59;98630.83;455934;114;922758;-77
2022/01/15 04:22:12;;;;;;;0.37;0.29;;;;;;;0.24;75.74;98630.19;455674;115;922783;-74
2022/01/15 04:23:16;;;;;;;0.63;0.53;;;;;;;0.23;75.85;98641.09;456252;114;922946;-75
2022/01/15 04:24:20;;;;;;;1.15;0.56;;;;;;;0.21;75.97;98635.13;456615;114;922542;-75
2022/01/15 04:25:23;;;;;;;1.02;0.62;;;;;;;0.21;76.09;98632.45;455931;115;922657;-75
2022/01/15 04:26:27;;;;;;;2.99;0.45;;;;;;;0.20;76.10;98631.61;455054;113;922995;-74
2022/01/15 04:27:31;;;;;;;0.98;0.40;;;;;;;0.20;76.00;98636.98;456434;115;922763;-75
2022/01/15 04:28:34;;;;;;;1.12;0.57;;;;;;;0.19;75.94;98635.31;456735;114;922651;-73
2022/01/15 04:29:37;;;;;;;0.72;0.57;;;;;;;0.19;75.97;98642.52;455847;115;923012;-74
2022/01/15 04:30:42;;;;;;;1.38;0.56;;;;;;;0.18;75.89;98644.37;456364;114;922945;-74
2022/01/15 04:31:48;;;;;;;2.57;0.58;;;;;;;0.18;75.91;98648.90;455093;116;922570;-74
2022/01/15 04:32:52;;;;;;;0.48;0.45;;;;;;;0.17;76.04;98637.35;456391;114;930260;-75
2022/01/15 04:33:55;;;;;;;1.25;0.50;;;;;;;0.17;76.19;98647.23;455850;114;923116;-76
2022/01/15 04:34:59;;;;;;;2.46;0.40;;;;;;;0.17;76.36;98647.23;456319;114;923172;-76
2022/01/15 04:36:04;;;;;;;0.62;0.32;;;;;;;0.15;76.41;98636.73;456043;114;922701;-75
2022/01/15 04:37:13;;;;;;;1.29;0.48;;;;;;;0.15;76.48;98647.45;455980;114;922608;-74
2022/01/15 04:38:13;;;;;;;0.70;0.30;;;;;;;0.15;76.25;98642.09;455893;114;922878;-74
2022/01/15 04:39:17;;;;;;;0.96;0.32;;;;;;;0.15;76.31;98642.09;456216;114;922651;-75
2022/01/15 04:40:21;;;;;;;0.45;0.40;;;;;;;0.15;76.18;98639.42;456542;114;930200;-75
2022/01/15 04:41:24;;;;;;;0.99;0.37;;;;;;;0.14;76.19;98645.80;456727;114;922745;-74
2022/01/15 04:42:29;;;;;;;1.18;0.74;;;;;;;0.15;76.16;98652.81;456211;114;922836;-75
2022/01/15 04:43:32;;;;;;;0.42;0.40;;;;;;;0.16;76.16;98651.80;456171;114;923492;-75
2022/01/15 04:44:36;;;;;;;0.47;0.47;;;;;;;0.16;76.11;98654.48;456467;114;922642;-75
2022/01/15 04:45:40;;;;;;;0.71;0.54;;;;;;;0.17;76.03;98657.95;446878;117;930883;-74
2022/01/15 04:46:44;;;;;;;0.36;0.31;;;;;;;0.16;75.98;98659.00;455667;113;922499;-75
2022/01/15 04:47:47;;;;;;;0.69;0.49;;;;;;;0.15;75.92;98663.53;456006;115;922490;-75
2022/01/15 04:48:50;;;;;;;1.11;0.59;;;;;;;0.14;75.82;98669.91;456686;115;930610;-75
2022/01/15 04:49:55;;;;;;;1.16;0.54;;;;;;;0.13;75.80;98670.92;456268;114;922586;-75
2022/01/15 04:50:58;;;;;;;0.68;0.50;;;;;;;0.11;75.82;98675.64;456527;114;922503;-74
2022/01/15 04:52:01;;;;;;;0.42;0.41;;;;;;;0.12;75.83;98666.59;455310;114;923317;-73
2022/01/15 04:53:04;;;;;;;0.83;0.55;;;;;;;0.13;75.68;98664.73;455626;114;922710;-74
2022/01/15 04:54:08;;;;;;;1.09;0.42;;;;;;;0.12;75.59;98676.47;456634;114;922603;-76
2022/01/15 04:55:12;;;;;;;0.65;0.42;;;;;;;0.11;75.68;98686.36;456266;115;922921;-75
2022/01/15 04:56:16;;;;;;;1.62;0.58;;;;;;;0.11;75.90;98681.00;446936;117;922499;-75
2022/01/15 04:57:19;;;;;;;0.78;0.51;;;;;;;0.13;75.78;98686.17;456193;114;922684;-75
2022/01/15 04:58:27;;;;;;;0.51;0.47;;;;;;;0.13;75.67;98697.72;456396;114;922654;-75
2022/01/15 04:59:27;;;;;;;1.77;0.80;;;;;;;0.15;75.57;98693.02;455553;114;922628;-75
2022/01/15 05:00:30;;;;;;;0.77;0.76;;;;;;;0.17;75.51;98682.08;455833;115;923182;-73
2022/01/15 05:01:34;;;;;;;0.91;0.63;;;;;;;0.19;75.46;98694.27;447500;116;922754;-76
2022/01/15 05:02:38;;;;;;;0.77;0.43;;;;;;;0.21;75.57;98689.55;456183;114;922649;-74
2022/01/15 05:03:41;;;;;;;0.57;0.37;;;;;;;0.20;75.28;98695.94;455696;113;922652;-76
2022/01/15 05:04:44;;;;;;;1.18;0.53;;;;;;;0.22;75.21;98693.87;456201;114;922712;-74
2022/01/15 05:05:48;;;;;;;0.46;0.42;;;;;;;0.23;75.21;98702.73;456393;114;922647;-74
2022/01/15 05:06:52;;;;;;;1.13;0.57;;;;;;;0.24;75.32;98696.36;456366;114;922525;-75
2022/01/15 05:07:55;;;;;;;1.46;0.59;;;;;;;0.25;75.29;98706.06;456300;115;922957;-76
2022/01/15 05:09:05;;;;;;;0.66;0.51;;;;;;;0.26;75.27;98702.36;456442;114;922712;-75
2022/01/15 05:10:09;;;;;;;5.33;0.80;;;;;;;0.27;75.38;98709.39;456604;116;923029;-75
2022/01/15 05:11:20;;;;;;;3.14;0.73;;;;;;;0.26;75.43;98713.92;455970;115;922944;-75
2022/01/15 05:12:31;;;;;;;1.34;0.78;;;;;;;0.28;75.47;98702.98;455421;114;923213;-74
2022/01/15 05:13:34;;;;;;;1.48;0.58;;;;;;;0.28;75.54;98702.98;455853;114;922604;-77
2022/01/15 05:14:36;;;;;;;1.80;0.98;;;;;;;0.28;75.56;98714.53;456451;115;922694;-75
2022/01/15 05:15:43;;;;;;;1.52;1.02;;;;;;;0.29;75.48;98707.33;455236;114;922659;-75
2022/01/15 05:16:47;;;;;;;1.46;0.98;;;;;;;0.29;75.50;98710.00;455224;114;922688;-75
2022/01/15 05:17:51;;;;;;;1.36;0.51;;;;;;;0.29;75.45;98705.47;456346;114;922727;-75
2022/01/15 05:18:54;;;;;;;0.94;0.65;;;;;;;0.30;75.47;98717.03;456221;116;922665;-75
2022/01/15 05:19:57;;;;;;;1.44;0.72;;;;;;;0.29;75.36;98720.72;456106;114;922588;-74
2022/01/15 05:21:01;;;;;;;1.84;0.68;;;;;;;0.30;75.32;98723.22;455626;114;922588;-74
2022/01/15 05:22:04;;;;;;;1.63;0.87;;;;;;;0.31;75.30;98718.69;456635;114;922555;-74